sensor_id;sensor_type;location;lat;lon;timestamp;pressure;altitude;pressure_sealevel;temperature;humidity
12969;BME280;6549;53.128;8.182;2023-04-26T00:01:15;101401.41;;;3.23;100.00
12969;BME280;6549;53.128;8.182;2023-04-26T00:04:16;101402.81;;;3.20;100.00
12969;BME280;6549;53.128;8.182;2023-04-26T00:07:16;101410.16;;;3.20;100.00
12969;BME280;6549;53.128;8.182;2023-04-26T00:10:17;101411.75;;;3.21;100.00
12969;BME280;6549;53.128;8.182;2023-04-26T00:13:17;101421.66;;;3.25;100.00
12969;BME280;6549;53.128;8.182;2023-04-26T00:16:17;101437.50;;;3.32;100.00
12969;BME280;6549;53.128;8.182;2023-04-26T00:19:19;101436.34;;;3.33;100.00
12969;BME280;6549;53.128;8.182;2023-04-26T00:22:20;101410.50;;;3.35;100.00
12969;BME280;6549;53.128;8.182;2023-04-26T00:25:20;101421.97;;;3.41;100.00
12969;BME280;6549;53.128;8.182;2023-04-26T00:28:21;101413.81;;;3.41;100.00
12969;BME280;6549;53.128;8.182;2023-04-26T00:31:21;101416.06;;;3.39;100.00
12969;BME280;6549;53.128;8.182;2023-04-26T00:34:21;101415.75;;;3.40;100.00
12969;BME280;6549;53.128;8.182;2023-04-26T00:37:22;101415.28;;;3.38;100.00
12969;BME280;6549;53.128;8.182;2023-04-26T00:40:22;101415.13;;;3.35;100.00
12969;BME280;6549;53.128;8.182;2023-04-26T00:43:22;101418.16;;;3.33;100.00
12969;BME280;6549;53.128;8.182;2023-04-26T00:46:23;101410.66;;;3.22;100.00
12969;BME280;6549;53.128;8.182;2023-04-26T00:49:24;101411.31;;;3.19;100.00
12969;BME280;6549;53.128;8.182;2023-04-26T00:52:26;101422.31;;;3.13;100.00
12969;BME280;6549;53.128;8.182;2023-04-26T00:55:26;101422.13;;;3.10;100.00
12969;BME280;6549;53.128;8.182;2023-04-26T00:58:27;101423.28;;;3.09;100.00
12969;BME280;6549;53.128;8.182;2023-04-26T01:01:27;101416.53;;;3.06;100.00
12969;BME280;6549;53.128;8.182;2023-04-26T01:04:28;101424.69;;;3.06;100.00
12969;BME280;6549;53.128;8.182;2023-04-26T01:07:29;101416.09;;;3.04;100.00
12969;BME280;6549;53.128;8.182;2023-04-26T01:10:33;101416.53;;;3.06;100.00
12969;BME280;6549;53.128;8.182;2023-04-26T01:13:35;101420.88;;;3.07;100.00
12969;BME280;6549;53.128;8.182;2023-04-26T01:16:36;101424.38;;;3.08;100.00
12969;BME280;6549;53.128;8.182;2023-04-26T01:19:46;101417.84;;;3.09;100.00
12969;BME280;6549;53.128;8.182;2023-04-26T01:22:46;101426.59;;;3.06;100.00
12969;BME280;6549;53.128;8.182;2023-04-26T01:25:47;101423.72;;;3.02;100.00
12969;BME280;6549;53.128;8.182;2023-04-26T01:28:47;101422.13;;;3.01;100.00
12969;BME280;6549;53.128;8.182;2023-04-26T01:31:48;101420.56;;;3.00;100.00
12969;BME280;6549;53.128;8.182;2023-04-26T01:34:48;101423.09;;;2.97;100.00
12969;BME280;6549;53.128;8.182;2023-04-26T01:37:49;101428.34;;;2.93;100.00
12969;BME280;6549;53.128;8.182;2023-04-26T01:40:49;101423.06;;;2.88;100.00
12969;BME280;6549;53.128;8.182;2023-04-26T01:43:50;101429.63;;;2.87;100.00
12969;BME280;6549;53.128;8.182;2023-04-26T01:46:50;101428.97;;;2.82;100.00
12969;BME280;6549;53.128;8.182;2023-04-26T01:49:51;101421.16;;;2.80;100.00
12969;BME280;6549;53.128;8.182;2023-04-26T01:52:51;101414.91;;;2.80;100.00
12969;BME280;6549;53.128;8.182;2023-04-26T01:55:51;101417.31;;;2.81;100.00
12969;BME280;6549;53.128;8.182;2023-04-26T01:58:52;101414.31;;;2.83;100.00
12969;BME280;6549;53.128;8.182;2023-04-26T02:01:54;101411.75;;;2.86;100.00
12969;BME280;6549;53.128;8.182;2023-04-26T02:04:54;101405.97;;;2.88;100.00
12969;BME280;6549;53.128;8.182;2023-04-26T02:07:55;101407.59;;;2.89;100.00
12969;BME280;6549;53.128;8.182;2023-04-26T02:10:55;101411.13;;;2.98;100.00
12969;BME280;6549;53.128;8.182;2023-04-26T02:13:56;101407.75;;;2.92;100.00
12969;BME280;6549;53.128;8.182;2023-04-26T02:16:56;101409.50;;;2.97;100.00
12969;BME280;6549;53.128;8.182;2023-04-26T02:19:56;101412.56;;;2.95;100.00
12969;BME280;6549;53.128;8.182;2023-04-26T02:22:57;101412.06;;;2.93;100.00
12969;BME280;6549;53.128;8.182;2023-04-26T02:25:57;101407.59;;;2.97;100.00
12969;BME280;6549;53.128;8.182;2023-04-26T02:28:57;101406.31;;;2.95;100.00
12969;BME280;6549;53.128;8.182;2023-04-26T02:31:58;101409.03;;;2.86;100.00
12969;BME280;6549;53.128;8.182;2023-04-26T02:34:58;101410.63;;;2.87;100.00
12969;BME280;6549;53.128;8.182;2023-04-26T02:37:58;101412.84;;;2.85;100.00
12969;BME280;6549;53.128;8.182;2023-04-26T02:41:00;101416.69;;;2.84;100.00
12969;BME280;6549;53.128;8.182;2023-04-26T02:44:00;101426.56;;;2.80;100.00
12969;BME280;6549;53.128;8.182;2023-04-26T02:47:01;101415.88;;;2.75;100.00
12969;BME280;6549;53.128;8.182;2023-04-26T02:50:02;101421.28;;;2.75;100.00
12969;BME280;6549;53.128;8.182;2023-04-26T02:53:02;101423.03;;;2.71;100.00
12969;BME280;6549;53.128;8.182;2023-04-26T02:56:03;101424.16;;;2.70;100.00
12969;BME280;6549;53.128;8.182;2023-04-26T02:59:06;101428.16;;;2.64;100.00
12969;BME280;6549;53.128;8.182;2023-04-26T03:02:07;101420.66;;;2.61;100.00
12969;BME280;6549;53.128;8.182;2023-04-26T03:05:08;101417.44;;;2.59;100.00
12969;BME280;6549;53.128;8.182;2023-04-26T03:08:08;101420.28;;;2.54;100.00
12969;BME280;6549;53.128;8.182;2023-04-26T03:11:09;101421.41;;;2.53;100.00
12969;BME280;6549;53.128;8.182;2023-04-26T03:14:09;101410.25;;;2.54;100.00
12969;BME280;6549;53.128;8.182;2023-04-26T03:17:09;101410.41;;;2.58;100.00
12969;BME280;6549;53.128;8.182;2023-04-26T03:20:10;101402.25;;;2.58;100.00
12969;BME280;6549;53.128;8.182;2023-04-26T03:23:10;101411.50;;;2.57;100.00
12969;BME280;6549;53.128;8.182;2023-04-26T03:26:11;101405.13;;;2.53;100.00
12969;BME280;6549;53.128;8.182;2023-04-26T03:29:11;101409.94;;;2.56;100.00
12969;BME280;6549;53.128;8.182;2023-04-26T03:32:12;101408.63;;;2.53;100.00
12969;BME280;6549;53.128;8.182;2023-04-26T03:35:12;101411.34;;;2.53;100.00
12969;BME280;6549;53.128;8.182;2023-04-26T03:38:13;101415.16;;;2.52;100.00
12969;BME280;6549;53.128;8.182;2023-04-26T03:41:13;101418.22;;;2.51;100.00
12969;BME280;6549;53.128;8.182;2023-04-26T03:44:13;101439.16;;;2.59;100.00
12969;BME280;6549;53.128;8.182;2023-04-26T03:47:14;101451.75;;;2.63;100.00
12969;BME280;6549;53.128;8.182;2023-04-26T03:50:15;101451.91;;;2.58;100.00
12969;BME280;6549;53.128;8.182;2023-04-26T03:53:15;101433.84;;;2.54;100.00
12969;BME280;6549;53.128;8.182;2023-04-26T03:56:15;101433.53;;;2.47;100.00
12969;BME280;6549;53.128;8.182;2023-04-26T03:59:16;101420.75;;;2.47;100.00
12969;BME280;6549;53.128;8.182;2023-04-26T04:02:16;101429.06;;;2.51;100.00
12969;BME280;6549;53.128;8.182;2023-04-26T04:05:16;101427.47;;;2.50;100.00
12969;BME280;6549;53.128;8.182;2023-04-26T04:08:17;101434.50;;;2.51;100.00
12969;BME280;6549;53.128;8.182;2023-04-26T04:11:17;101426.34;;;2.51;100.00
12969;BME280;6549;53.128;8.182;2023-04-26T04:14:17;101437.06;;;2.56;100.00
12969;BME280;6549;53.128;8.182;2023-04-26T04:17:18;101429.38;;;2.49;100.00
12969;BME280;6549;53.128;8.182;2023-04-26T04:20:18;101442.94;;;2.49;100.00
12969;BME280;6549;53.128;8.182;2023-04-26T04:23:20;101453.16;;;2.52;100.00
12969;BME280;6549;53.128;8.182;2023-04-26T04:26:20;101447.91;;;2.56;100.00
12969;BME280;6549;53.128;8.182;2023-04-26T04:29:21;101446.47;;;2.58;100.00
12969;BME280;6549;53.128;8.182;2023-04-26T04:32:21;101445.06;;;2.61;100.00
12969;BME280;6549;53.128;8.182;2023-04-26T04:35:22;101437.41;;;2.71;100.00
12969;BME280;6549;53.128;8.182;2023-04-26T04:38:27;101426.41;;;2.68;100.00
12969;BME280;6549;53.128;8.182;2023-04-26T04:41:28;101426.25;;;2.73;100.00
12969;BME280;6549;53.128;8.182;2023-04-26T04:44:28;101431.03;;;2.76;100.00
12969;BME280;6549;53.128;8.182;2023-04-26T04:47:29;101430.41;;;2.79;100.00
12969;BME280;6549;53.128;8.182;2023-04-26T04:50:30;101432.16;;;2.84;100.00
12969;BME280;6549;53.128;8.182;2023-04-26T04:53:31;101426.94;;;2.87;100.00
12969;BME280;6549;53.128;8.182;2023-04-26T04:56:31;101426.13;;;2.87;100.00
12969;BME280;6549;53.128;8.182;2023-04-26T04:59:31;101431.22;;;2.88;100.00
12969;BME280;6549;53.128;8.182;2023-04-26T05:02:32;101434.28;;;2.95;100.00
12969;BME280;6549;53.128;8.182;2023-04-26T05:05:32;101438.75;;;3.00;100.00
12969;BME280;6549;53.128;8.182;2023-04-26T05:08:33;101427.09;;;3.08;100.00
12969;BME280;6549;53.128;8.182;2023-04-26T05:11:33;101432.03;;;3.14;100.00
12969;BME280;6549;53.128;8.182;2023-04-26T05:14:34;101436.50;;;3.19;100.00
12969;BME280;6549;53.128;8.182;2023-04-26T05:17:34;101442.59;;;3.25;100.00
12969;BME280;6549;53.128;8.182;2023-04-26T05:20:34;101447.06;;;3.29;100.00
12969;BME280;6549;53.128;8.182;2023-04-26T05:23:35;101442.44;;;3.30;100.00
12969;BME280;6549;53.128;8.182;2023-04-26T05:26:35;101445.16;;;3.30;100.00
12969;BME280;6549;53.128;8.182;2023-04-26T05:29:36;101450.09;;;3.28;100.00
12969;BME280;6549;53.128;8.182;2023-04-26T05:32:36;101453.00;;;3.31;100.00
12969;BME280;6549;53.128;8.182;2023-04-26T05:35:36;101448.03;;;3.33;100.00
12969;BME280;6549;53.128;8.182;2023-04-26T05:38:37;101446.41;;;3.32;100.00
12969;BME280;6549;53.128;8.182;2023-04-26T05:41:37;101449.94;;;3.33;100.00
12969;BME280;6549;53.128;8.182;2023-04-26T05:44:37;101453.94;;;3.61;100.00
12969;BME280;6549;53.128;8.182;2023-04-26T05:47:38;101457.66;;;4.20;100.00
12969;BME280;6549;53.128;8.182;2023-04-26T05:50:38;101456.81;;;4.66;100.00
12969;BME280;6549;53.128;8.182;2023-04-26T05:53:38;101450.31;;;5.09;100.00
12969;BME280;6549;53.128;8.182;2023-04-26T05:56:39;101449.91;;;5.39;100.00
12969;BME280;6549;53.128;8.182;2023-04-26T05:59:39;101449.38;;;5.79;100.00
12969;BME280;6549;53.128;8.182;2023-04-26T06:02:40;101459.97;;;6.13;100.00
12969;BME280;6549;53.128;8.182;2023-04-26T06:05:40;101449.03;;;6.13;100.00
12969;BME280;6549;53.128;8.182;2023-04-26T06:08:41;101451.94;;;6.41;100.00
12969;BME280;6549;53.128;8.182;2023-04-26T06:11:42;101450.56;;;6.71;100.00
12969;BME280;6549;53.128;8.182;2023-04-26T06:14:43;101453.94;;;7.05;100.00
12969;BME280;6549;53.128;8.182;2023-04-26T06:17:43;101457.38;;;7.42;100.00
12969;BME280;6549;53.128;8.182;2023-04-26T06:20:45;101454.81;;;7.61;100.00
12969;BME280;6549;53.128;8.182;2023-04-26T06:23:45;101463.16;;;7.80;100.00
12969;BME280;6549;53.128;8.182;2023-04-26T06:26:45;101463.03;;;8.04;100.00
12969;BME280;6549;53.128;8.182;2023-04-26T06:29:46;101469.75;;;8.07;100.00
12969;BME280;6549;53.128;8.182;2023-04-26T06:32:46;101472.47;;;8.35;100.00
12969;BME280;6549;53.128;8.182;2023-04-26T06:35:47;101470.94;;;8.69;100.00
12969;BME280;6549;53.128;8.182;2023-04-26T06:38:47;101471.81;;;8.73;100.00
12969;BME280;6549;53.128;8.182;2023-04-26T06:41:47;101481.69;;;8.93;100.00
12969;BME280;6549;53.128;8.182;2023-04-26T06:44:48;101481.31;;;8.94;100.00
12969;BME280;6549;53.128;8.182;2023-04-26T06:47:51;101485.91;;;9.06;100.00
12969;BME280;6549;53.128;8.182;2023-04-26T06:50:52;101486.25;;;9.05;100.00
12969;BME280;6549;53.128;8.182;2023-04-26T06:53:52;101489.97;;;9.12;100.00
12969;BME280;6549;53.128;8.182;2023-04-26T06:56:52;101486.25;;;9.20;100.00
12969;BME280;6549;53.128;8.182;2023-04-26T06:59:53;101490.28;;;8.91;100.00
12969;BME280;6549;53.128;8.182;2023-04-26T07:02:53;101493.47;;;8.46;100.00
12969;BME280;6549;53.128;8.182;2023-04-26T07:05:54;101487.88;;;8.27;100.00
12969;BME280;6549;53.128;8.182;2023-04-26T07:08:59;101482.94;;;8.33;100.00
12969;BME280;6549;53.128;8.182;2023-04-26T07:12:00;101492.53;;;8.11;100.00
12969;BME280;6549;53.128;8.182;2023-04-26T07:15:00;101495.06;;;8.47;100.00
12969;BME280;6549;53.128;8.182;2023-04-26T07:18:00;101491.53;;;8.78;100.00
12969;BME280;6549;53.128;8.182;2023-04-26T07:21:01;101495.69;;;9.23;100.00
12969;BME280;6549;53.128;8.182;2023-04-26T07:24:01;101494.16;;;9.60;100.00
12969;BME280;6549;53.128;8.182;2023-04-26T07:27:01;101483.09;;;9.76;100.00
12969;BME280;6549;53.128;8.182;2023-04-26T07:30:03;101486.88;;;10.10;100.00
12969;BME280;6549;53.128;8.182;2023-04-26T07:33:04;101493.72;;;10.39;100.00
12969;BME280;6549;53.128;8.182;2023-04-26T07:36:04;101495.22;;;10.59;100.00
12969;BME280;6549;53.128;8.182;2023-04-26T07:39:05;101497.38;;;10.69;100.00
12969;BME280;6549;53.128;8.182;2023-04-26T07:42:05;101497.25;;;10.62;100.00
12969;BME280;6549;53.128;8.182;2023-04-26T07:45:06;101497.38;;;10.69;100.00
12969;BME280;6549;53.128;8.182;2023-04-26T07:48:07;101498.13;;;10.92;100.00
12969;BME280;6549;53.128;8.182;2023-04-26T07:51:10;101499.50;;;11.05;100.00
12969;BME280;6549;53.128;8.182;2023-04-26T07:54:10;101505.00;;;11.32;100.00
12969;BME280;6549;53.128;8.182;2023-04-26T07:57:11;101497.06;;;11.26;100.00
12969;BME280;6549;53.128;8.182;2023-04-26T08:00:12;101501.94;;;11.10;100.00
12969;BME280;6549;53.128;8.182;2023-04-26T08:03:15;101498.94;;;10.93;100.00
12969;BME280;6549;53.128;8.182;2023-04-26T08:06:16;101503.16;;;10.64;100.00
12969;BME280;6549;53.128;8.182;2023-04-26T08:09:17;101500.59;;;10.29;100.00
12969;BME280;6549;53.128;8.182;2023-04-26T08:12:17;101500.25;;;9.92;100.00
12969;BME280;6549;53.128;8.182;2023-04-26T08:15:18;101503.66;;;9.66;100.00
12969;BME280;6549;53.128;8.182;2023-04-26T08:18:18;101494.84;;;9.57;100.00
12969;BME280;6549;53.128;8.182;2023-04-26T08:21:18;101489.59;;;9.68;100.00
12969;BME280;6549;53.128;8.182;2023-04-26T08:24:19;101493.44;;;9.63;100.00
12969;BME280;6549;53.128;8.182;2023-04-26T08:27:19;101494.50;;;9.78;100.00
12969;BME280;6549;53.128;8.182;2023-04-26T08:30:20;101492.41;;;10.32;100.00
12969;BME280;6549;53.128;8.182;2023-04-26T08:33:20;101492.13;;;10.38;93.50
12969;BME280;6549;53.128;8.182;2023-04-26T08:36:21;101494.09;;;10.18;96.28
12969;BME280;6549;53.128;8.182;2023-04-26T08:39:21;101501.28;;;9.65;89.13
12969;BME280;6549;53.128;8.182;2023-04-26T08:42:26;101510.63;;;9.25;88.10
12969;BME280;6549;53.128;8.182;2023-04-26T08:45:26;101511.25;;;8.84;94.77
12969;BME280;6549;53.128;8.182;2023-04-26T08:48:29;101517.06;;;8.51;100.00
12969;BME280;6549;53.128;8.182;2023-04-26T08:51:34;101517.72;;;8.17;100.00
12969;BME280;6549;53.128;8.182;2023-04-26T08:54:36;101525.25;;;7.92;100.00
12969;BME280;6549;53.128;8.182;2023-04-26T08:57:39;101524.84;;;7.78;100.00
12969;BME280;6549;53.128;8.182;2023-04-26T09:00:45;101521.50;;;7.56;100.00
12969;BME280;6549;53.128;8.182;2023-04-26T09:03:45;101535.22;;;7.32;100.00
12969;BME280;6549;53.128;8.182;2023-04-26T09:06:52;101522.38;;;6.96;100.00
12969;BME280;6549;53.128;8.182;2023-04-26T09:09:57;101526.13;;;6.92;100.00
12969;BME280;6549;53.128;8.182;2023-04-26T09:13:06;101525.91;;;6.85;100.00
12969;BME280;6549;53.128;8.182;2023-04-26T09:16:10;101522.94;;;7.02;100.00
12969;BME280;6549;53.128;8.182;2023-04-26T09:19:13;101531.09;;;7.26;100.00
12969;BME280;6549;53.128;8.182;2023-04-26T09:22:33;101526.69;;;7.34;100.00
12969;BME280;6549;53.128;8.182;2023-04-26T09:25:36;101527.88;;;7.48;100.00
12969;BME280;6549;53.128;8.182;2023-04-26T09:28:40;101528.78;;;7.52;100.00
12969;BME280;6549;53.128;8.182;2023-04-26T09:31:44;101523.16;;;7.73;100.00
12969;BME280;6549;53.128;8.182;2023-04-26T09:34:45;101542.28;;;8.29;100.00
12969;BME280;6549;53.128;8.182;2023-04-26T09:40:55;101545.13;;;9.61;100.00
12969;BME280;6549;53.128;8.182;2023-04-26T09:43:58;101533.56;;;10.10;100.00
12969;BME280;6549;53.128;8.182;2023-04-26T09:47:07;101545.66;;;10.24;100.00
12969;BME280;6549;53.128;8.182;2023-04-26T09:50:10;101526.56;;;9.93;100.00
12969;BME280;6549;53.128;8.182;2023-04-26T09:56:36;101533.22;;;9.19;100.00
12969;BME280;6549;53.128;8.182;2023-04-26T09:59:47;101532.34;;;9.34;100.00
12969;BME280;6549;53.128;8.182;2023-04-26T10:02:48;101532.59;;;9.44;100.00
12969;BME280;6549;53.128;8.182;2023-04-26T10:05:48;101542.75;;;9.98;100.00
12969;BME280;6549;53.128;8.182;2023-04-26T10:08:49;101537.28;;;10.40;100.00
12969;BME280;6549;53.128;8.182;2023-04-26T10:11:50;101535.78;;;10.43;100.00
12969;BME280;6549;53.128;8.182;2023-04-26T10:14:50;101545.34;;;10.29;100.00
12969;BME280;6549;53.128;8.182;2023-04-26T10:17:50;101537.91;;;10.30;96.38
12969;BME280;6549;53.128;8.182;2023-04-26T10:20:52;101549.94;;;10.22;94.40
12969;BME280;6549;53.128;8.182;2023-04-26T10:23:55;101536.19;;;10.22;92.02
12969;BME280;6549;53.128;8.182;2023-04-26T10:26:55;101533.66;;;10.13;92.05
12969;BME280;6549;53.128;8.182;2023-04-26T10:36:11;101530.81;;;10.97;88.60
12969;BME280;6549;53.128;8.182;2023-04-26T10:39:19;101534.69;;;11.19;88.85
12969;BME280;6549;53.128;8.182;2023-04-26T10:42:28;101529.00;;;11.08;86.45
12969;BME280;6549;53.128;8.182;2023-04-26T10:45:29;101527.69;;;11.25;86.78
12969;BME280;6549;53.128;8.182;2023-04-26T10:48:30;101522.97;;;11.25;86.96
12969;BME280;6549;53.128;8.182;2023-04-26T10:51:31;101524.47;;;11.46;81.25
12969;BME280;6549;53.128;8.182;2023-04-26T10:54:44;101525.47;;;11.64;74.85
12969;BME280;6549;53.128;8.182;2023-04-26T10:57:46;101524.13;;;12.14;76.05
12969;BME280;6549;53.128;8.182;2023-04-26T11:01:10;101509.81;;;12.82;75.68
12969;BME280;6549;53.128;8.182;2023-04-26T11:04:17;101516.13;;;12.83;72.38
12969;BME280;6549;53.128;8.182;2023-04-26T11:07:35;101518.72;;;12.21;74.06
12969;BME280;6549;53.128;8.182;2023-04-26T11:10:37;101544.31;;;11.32;82.73
12969;BME280;6549;53.128;8.182;2023-04-26T11:13:42;101544.63;;;9.94;100.00
12969;BME280;6549;53.128;8.182;2023-04-26T11:16:42;101541.25;;;9.27;100.00
12969;BME280;6549;53.128;8.182;2023-04-26T11:19:45;101537.41;;;8.66;100.00
12969;BME280;6549;53.128;8.182;2023-04-26T11:22:46;101528.22;;;8.58;100.00
12969;BME280;6549;53.128;8.182;2023-04-26T11:25:46;101524.13;;;8.68;100.00
12969;BME280;6549;53.128;8.182;2023-04-26T11:28:47;101520.16;;;8.65;100.00
12969;BME280;6549;53.128;8.182;2023-04-26T11:31:55;101520.75;;;8.90;100.00
12969;BME280;6549;53.128;8.182;2023-04-26T11:34:59;101519.84;;;9.17;100.00
12969;BME280;6549;53.128;8.182;2023-04-26T11:37:59;101522.94;;;9.51;100.00
12969;BME280;6549;53.128;8.182;2023-04-26T11:41:01;101527.19;;;10.06;100.00
12969;BME280;6549;53.128;8.182;2023-04-26T11:44:02;101530.09;;;10.55;100.00
12969;BME280;6549;53.128;8.182;2023-04-26T11:47:04;101528.66;;;10.61;100.00
12969;BME280;6549;53.128;8.182;2023-04-26T11:50:06;101534.13;;;10.38;100.00
12969;BME280;6549;53.128;8.182;2023-04-26T11:53:08;101528.38;;;9.66;100.00
12969;BME280;6549;53.128;8.182;2023-04-26T11:56:19;101539.41;;;9.70;100.00
12969;BME280;6549;53.128;8.182;2023-04-26T11:59:28;101539.88;;;9.72;100.00
12969;BME280;6549;53.128;8.182;2023-04-26T12:02:29;101527.44;;;9.97;100.00
12969;BME280;6549;53.128;8.182;2023-04-26T12:05:29;101528.31;;;10.20;100.00
12969;BME280;6549;53.128;8.182;2023-04-26T12:08:31;101530.59;;;10.18;100.00
12969;BME280;6549;53.128;8.182;2023-04-26T12:11:32;101532.06;;;10.12;100.00
12969;BME280;6549;53.128;8.182;2023-04-26T12:14:36;101536.53;;;10.20;100.00
12969;BME280;6549;53.128;8.182;2023-04-26T12:17:37;101532.84;;;10.32;100.00
12969;BME280;6549;53.128;8.182;2023-04-26T12:20:41;101531.63;;;10.52;100.00
12969;BME280;6549;53.128;8.182;2023-04-26T12:23:42;101532.06;;;11.03;99.33
12969;BME280;6549;53.128;8.182;2023-04-26T12:26:46;101540.56;;;11.17;100.00
12969;BME280;6549;53.128;8.182;2023-04-26T12:29:47;101544.91;;;11.18;100.00
12969;BME280;6549;53.128;8.182;2023-04-26T12:32:48;101537.56;;;11.56;100.00
12969;BME280;6549;53.128;8.182;2023-04-26T12:35:49;101539.00;;;11.46;100.00
12969;BME280;6549;53.128;8.182;2023-04-26T12:38:49;101556.19;;;10.87;100.00
12969;BME280;6549;53.128;8.182;2023-04-26T12:41:50;101545.00;;;10.54;100.00
12969;BME280;6549;53.128;8.182;2023-04-26T12:44:50;101550.53;;;9.96;100.00
12969;BME280;6549;53.128;8.182;2023-04-26T12:47:50;101547.59;;;9.31;100.00
12969;BME280;6549;53.128;8.182;2023-04-26T12:50:51;101557.34;;;9.29;100.00
12969;BME280;6549;53.128;8.182;2023-04-26T12:53:51;101557.81;;;9.15;100.00
12969;BME280;6549;53.128;8.182;2023-04-26T12:56:52;101559.34;;;8.97;100.00
12969;BME280;6549;53.128;8.182;2023-04-26T12:59:53;101558.44;;;8.93;100.00
12969;BME280;6549;53.128;8.182;2023-04-26T13:02:53;101560.56;;;8.84;100.00
12969;BME280;6549;53.128;8.182;2023-04-26T13:05:54;101554.38;;;8.87;100.00
12969;BME280;6549;53.128;8.182;2023-04-26T13:08:55;101561.72;;;8.83;100.00
12969;BME280;6549;53.128;8.182;2023-04-26T13:11:55;101564.81;;;8.97;100.00
12969;BME280;6549;53.128;8.182;2023-04-26T13:14:55;101560.38;;;9.08;100.00
12969;BME280;6549;53.128;8.182;2023-04-26T13:17:56;101565.72;;;9.36;100.00
12969;BME280;6549;53.128;8.182;2023-04-26T13:20:56;101555.22;;;9.57;100.00
12969;BME280;6549;53.128;8.182;2023-04-26T13:23:56;101562.25;;;9.74;100.00
12969;BME280;6549;53.128;8.182;2023-04-26T13:26:57;101560.59;;;9.88;100.00
12969;BME280;6549;53.128;8.182;2023-04-26T13:29:57;101562.19;;;10.09;98.51
12969;BME280;6549;53.128;8.182;2023-04-26T13:32:58;101561.28;;;10.20;92.63
12969;BME280;6549;53.128;8.182;2023-04-26T13:35:58;101558.34;;;10.32;91.34
12969;BME280;6549;53.128;8.182;2023-04-26T13:38:58;101570.94;;;10.33;91.76
12969;BME280;6549;53.128;8.182;2023-04-26T13:42:00;101575.63;;;9.95;93.92
12969;BME280;6549;53.128;8.182;2023-04-26T13:45:01;101583.94;;;9.44;95.71
12969;BME280;6549;53.128;8.182;2023-04-26T13:48:05;101586.81;;;9.16;97.44
12969;BME280;6549;53.128;8.182;2023-04-26T13:51:05;101581.97;;;8.78;100.00
12969;BME280;6549;53.128;8.182;2023-04-26T13:54:06;101591.22;;;8.58;100.00
12969;BME280;6549;53.128;8.182;2023-04-26T13:57:06;101585.44;;;8.32;100.00
12969;BME280;6549;53.128;8.182;2023-04-26T14:00:07;101582.94;;;8.14;100.00
12969;BME280;6549;53.128;8.182;2023-04-26T14:03:07;101583.41;;;8.17;100.00
12969;BME280;6549;53.128;8.182;2023-04-26T14:06:08;101580.06;;;8.23;100.00
12969;BME280;6549;53.128;8.182;2023-04-26T14:09:08;101585.28;;;8.28;100.00
12969;BME280;6549;53.128;8.182;2023-04-26T14:12:08;101591.94;;;8.27;100.00
12969;BME280;6549;53.128;8.182;2023-04-26T14:15:09;101593.19;;;8.30;100.00
12969;BME280;6549;53.128;8.182;2023-04-26T14:18:09;101590.78;;;8.28;100.00
12969;BME280;6549;53.128;8.182;2023-04-26T14:21:11;101594.00;;;8.30;100.00
12969;BME280;6549;53.128;8.182;2023-04-26T14:24:12;101590.78;;;8.28;100.00
12969;BME280;6549;53.128;8.182;2023-04-26T14:27:12;101593.31;;;8.21;100.00
12969;BME280;6549;53.128;8.182;2023-04-26T14:30:13;101600.88;;;8.12;100.00
12969;BME280;6549;53.128;8.182;2023-04-26T14:33:13;101603.78;;;8.03;100.00
12969;BME280;6549;53.128;8.182;2023-04-26T14:36:13;101613.25;;;7.94;100.00
12969;BME280;6549;53.128;8.182;2023-04-26T14:39:14;101606.31;;;7.84;100.00
12969;BME280;6549;53.128;8.182;2023-04-26T14:42:15;101605.78;;;7.66;100.00
12969;BME280;6549;53.128;8.182;2023-04-26T14:45:15;101614.03;;;7.54;100.00
12969;BME280;6549;53.128;8.182;2023-04-26T14:48:15;101605.94;;;7.46;100.00
12969;BME280;6549;53.128;8.182;2023-04-26T14:51:16;101598.56;;;7.34;100.00
12969;BME280;6549;53.128;8.182;2023-04-26T14:54:16;101600.50;;;7.34;100.00
12969;BME280;6549;53.128;8.182;2023-04-26T14:57:17;101602.44;;;7.33;100.00
12969;BME280;6549;53.128;8.182;2023-04-26T15:00:18;101595.34;;;7.32;100.00
12969;BME280;6549;53.128;8.182;2023-04-26T15:03:19;101590.91;;;7.40;100.00
12969;BME280;6549;53.128;8.182;2023-04-26T15:06:19;101588.75;;;7.45;100.00
12969;BME280;6549;53.128;8.182;2023-04-26T15:09:20;101597.72;;;7.58;100.00
12969;BME280;6549;53.128;8.182;2023-04-26T15:12:20;101593.28;;;7.65;100.00
12969;BME280;6549;53.128;8.182;2023-04-26T15:15:21;101599.19;;;7.67;100.00
12969;BME280;6549;53.128;8.182;2023-04-26T15:18:21;101592.13;;;7.66;100.00
12969;BME280;6549;53.128;8.182;2023-04-26T15:21:22;101593.00;;;7.71;100.00
12969;BME280;6549;53.128;8.182;2023-04-26T15:24:22;101594.38;;;7.77;100.00
12969;BME280;6549;53.128;8.182;2023-04-26T15:27:22;101592.22;;;7.82;100.00
12969;BME280;6549;53.128;8.182;2023-04-26T15:30:24;101583.84;;;7.91;100.00
12969;BME280;6549;53.128;8.182;2023-04-26T15:33:24;101593.16;;;8.02;100.00
12969;BME280;6549;53.128;8.182;2023-04-26T15:36:24;101589.94;;;8.12;100.00
12969;BME280;6549;53.128;8.182;2023-04-26T15:39:25;101590.03;;;8.16;100.00
12969;BME280;6549;53.128;8.182;2023-04-26T15:42:25;101587.22;;;8.28;100.00
12969;BME280;6549;53.128;8.182;2023-04-26T15:45:26;101585.97;;;8.37;100.00
12969;BME280;6549;53.128;8.182;2023-04-26T15:48:26;101589.34;;;8.46;100.00
12969;BME280;6549;53.128;8.182;2023-04-26T15:51:26;101588.22;;;8.63;100.00
12969;BME280;6549;53.128;8.182;2023-04-26T15:54:27;101590.09;;;8.75;100.00
12969;BME280;6549;53.128;8.182;2023-04-26T15:57:28;101590.09;;;9.06;100.00
12969;BME280;6549;53.128;8.182;2023-04-26T16:00:29;101589.72;;;9.23;100.00
12969;BME280;6549;53.128;8.182;2023-04-26T16:03:34;101590.34;;;9.32;100.00
12969;BME280;6549;53.128;8.182;2023-04-26T16:06:34;101586.31;;;9.45;100.00
12969;BME280;6549;53.128;8.182;2023-04-26T16:09:35;101586.84;;;9.51;100.00
12969;BME280;6549;53.128;8.182;2023-04-26T16:12:36;101595.34;;;9.46;100.00